Terminal Aerodrome Forecast
Issued by NWS Twin Cities, MN

Home | Current Version | Previous Version | Graphics & Text | Print | Product List | Glossary On
Versions: 1 2 3 4 5 6 7 8 9 10 11 12 13 14 15 16 17 18
000
FTUS43 KMPX 172327
TAFEAU
TAF
KEAU 172327Z 1800/1824 30004KT P6SM OVC090
     FM180100 29005KT P6SM SCT035
     FM180300 25004KT P6SM BKN008
     FM180600 22004KT P6SM SCT003
     FM181100 21004KT 1/2SM FG SCT003
     FM181300 21004KT P6SM FEW003
     FM181400 20005KT P6SM FEW250=

USA.gov is the U.S. government's official web portal to all federal, state and local government web resources and services.